Dati Storici

Data ora Umidita' aria (%) Temperatura aria (°C) Rad globale (W/m²) Gonioanemometro (°) Tacoanemometro (m/s) Pioggia (mm)
26-10-2012 02:50 87.3 % 10.614 1.873 11.764 0.81 0
26-10-2012 02:40 86.8 % 10.717 1.591 6.119 0.372 0
26-10-2012 02:30 86.6 % 10.972 1.553 36.317 0.348 0
26-10-2012 02:20 86.5 % 11.193 1.707 9.049 0.723 0
26-10-2012 02:10 86.3 % 11.276 1.501 12.93 0.883 0
26-10-2012 02:00 86.4 % 11.475 1.697 354.32 0.868 0
26-10-2012 01:50 86.5 % 11.69 2.467 60.541 0.267 0
26-10-2012 01:40 86.4 % 11.76 2.3 64.446 0.193 0
26-10-2012 01:30 86.1 % 11.775 2.172 18.934 0.7 0
26-10-2012 01:20 86.3 % 11.846 2.181 51.412 0.703 0
26-10-2012 01:10 86.4 % 11.866 2.361 334.228 0.01 0
26-10-2012 01:00 86.7 % 11.854 2.502 353.813 0.399 0
26-10-2012 00:50 86.9 % 11.836 2.258 18.061 0.646 0
26-10-2012 00:40 87.3 % 11.948 2.194 41.397 0.438 0
26-10-2012 00:30 87.1 % 11.901 1.553 351.581 0.767 0
26-10-2012 00:20 87.4 % 12.113 1.899 17.246 0.783 0
26-10-2012 00:10 88.4 % 12.243 2.963 16.159 0.046 0
26-10-2012 00:00 88.7 % 12.033 2.553 348.262 0.571 0
25-10-2012 23:50 88.8 % 11.875 1.963 1.157 0.655 0
25-10-2012 23:40 88.3 % 11.832 1.54 6.731 0.872 0

I dati sono presentati in modo automatico a scopo informativo. In seguito a verifica i dati possono subire modifiche o essere invalidati e non riportati negli archivi definitivi.